Time,TemperatureF,DewpointF,PressureIn,WindDirection,WindDirectionDegrees,WindSpeedMPH,WindSpeedGustMPH,Humidity,HourlyPrecipIn,Conditions,Clouds,dailyrainin,SoftwareType,DateUTC
2013-04-11 00:03:00,48.0,45.0,29.82,ESE,112,2.0,6.0,89,0.00,,,0.00,,2013-04-11 04:03:00,
2013-04-11 00:13:00,48.0,45.0,29.80,ESE,112,3.0,4.0,89,0.00,,,0.00,,2013-04-11 04:13:00,
2013-04-11 00:22:00,48.0,45.0,29.80,ESE,112,3.0,4.0,89,0.00,,,0.00,,2013-04-11 04:22:00,
2013-04-11 00:33:00,48.0,45.0,29.80,East,90,0.0,5.0,89,0.00,,,0.00,,2013-04-11 04:33:00,
2013-04-11 00:43:00,48.0,45.0,29.80,East,90,0.0,5.0,89,0.00,,,0.00,,2013-04-11 04:43:00,
2013-04-11 00:52:00,48.0,45.0,29.81,ENE,67,1.0,1.0,89,0.00,,,0.00,,2013-04-11 04:52:00,
2013-04-11 01:02:00,48.0,45.0,29.81,ENE,67,0.0,2.0,89,0.00,,,0.00,,2013-04-11 05:02:00,
2013-04-11 01:13:00,48.0,45.0,29.80,ENE,67,5.0,5.0,89,0.00,,,0.00,,2013-04-11 05:13:00,
2013-04-11 01:22:00,48.0,45.0,29.80,ENE,67,5.0,5.0,89,0.00,,,0.00,,2013-04-11 05:22:00,
2013-04-11 01:32:00,48.0,45.0,29.80,ENE,67,5.0,5.0,89,0.00,,,0.00,,2013-04-11 05:32:00,
2013-04-11 01:42:00,48.0,45.0,29.80,ENE,67,5.0,5.0,89,0.00,,,0.00,,2013-04-11 05:42:00,
2013-04-11 01:52:00,48.0,45.0,29.78,East,90,3.0,7.0,89,0.00,,,0.00,,2013-04-11 05:52:00,
2013-04-11 02:02:00,48.0,45.0,29.78,ESE,112,6.0,7.0,90,0.00,,,0.00,,2013-04-11 06:02:00,
2013-04-11 02:12:00,48.0,45.0,29.78,ESE,112,6.0,7.0,90,0.00,,,0.00,,2013-04-11 06:12:00,
2013-04-11 02:22:00,47.0,44.0,29.76,ENE,67,3.0,3.0,90,0.00,,,0.00,,2013-04-11 06:22:00,
2013-04-11 02:32:00,47.0,44.0,29.76,SSE,151,8.0,9.0,90,0.00,,,0.00,,2013-04-11 06:32:00,
2013-04-11 02:42:00,47.0,44.0,29.76,SSE,151,8.0,9.0,90,0.00,,,0.00,,2013-04-11 06:42:00,
2013-04-11 02:52:00,47.0,44.0,29.84,East,90,0.0,2.0,90,0.00,,,0.00,,2013-04-11 06:52:00,
2013-04-11 03:00:00,47.0,44.0,29.82,NE,45,1.0,1.0,90,0.00,,,0.00,,2013-04-11 07:00:00,
2013-04-11 03:02:00,47.0,44.0,29.81,NE,45,0.0,1.0,90,0.00,,,0.00,,2013-04-11 07:02:00,
2013-04-11 03:12:00,47.0,44.0,29.81,NE,45,0.0,1.0,90,0.00,,,0.00,,2013-04-11 07:12:00,
2013-04-11 03:22:00,47.0,44.0,29.82,NE,45,1.0,1.0,90,0.00,,,0.00,,2013-04-11 07:22:00,
2013-04-11 03:32:00,47.0,44.0,29.82,NE,45,1.0,1.0,90,0.00,,,0.00,,2013-04-11 07:32:00,
2013-04-11 03:42:00,47.0,44.0,29.82,NE,45,1.0,1.0,90,0.00,,,0.00,,2013-04-11 07:42:00,
2013-04-11 03:52:00,47.0,44.0,29.82,NE,45,1.0,1.0,90,0.00,,,0.00,,2013-04-11 07:52:00,
2013-04-11 07:32:00,45.0,42.0,29.75,ENE,67,2.0,2.0,90,0.00,,,0.00,,2013-04-11 11:32:00,
2013-04-11 07:43:00,45.0,42.0,29.75,ENE,67,2.0,2.0,90,0.00,,,0.00,,2013-04-11 11:43:00,
2013-04-11 07:53:00,45.0,42.0,29.75,ENE,67,2.0,2.0,90,0.00,,,0.00,,2013-04-11 11:53:00,
2013-04-11 08:02:00,45.0,42.0,29.75,ENE,67,2.0,2.0,90,0.00,,,0.00,,2013-04-11 12:02:00,
2013-04-11 08:12:00,45.0,42.0,29.75,ENE,67,2.0,2.0,90,0.00,,,0.00,,2013-04-11 12:12:00,
2013-04-11 09:32:00,46.0,43.0,29.75,ESE,112,1.0,1.0,90,0.00,,,0.00,,2013-04-11 13:32:00,
2013-04-11 09:43:00,46.0,43.0,29.75,ESE,112,1.0,1.0,90,0.00,,,0.00,,2013-04-11 13:43:00,
2013-04-11 09:54:00,46.0,43.0,29.75,ESE,112,1.0,1.0,90,0.00,,,0.00,,2013-04-11 13:54:00,
2013-04-11 10:03:00,46.0,43.0,29.75,ESE,112,1.0,1.0,90,0.00,,,0.00,,2013-04-11 14:03:00,
2013-04-11 10:12:00,46.0,43.0,29.75,ESE,112,1.0,1.0,90,0.00,,,0.00,,2013-04-11 14:12:00,
2013-04-11 12:02:00,45.0,43.0,29.73,North,-999,-999.0,-999.0,91,0.00,,,0.00,,2013-04-11 16:02:00,
2013-04-11 12:13:00,45.0,43.0,29.73,North,-999,-999.0,-999.0,91,0.00,,,0.00,,2013-04-11 16:13:00,
2013-04-11 12:23:00,44.0,42.0,29.72,North,-999,-999.0,-999.0,91,0.00,,,0.00,,2013-04-11 16:23:00,
2013-04-11 12:32:00,44.0,42.0,29.72,North,-999,-999.0,-999.0,91,0.00,,,0.00,,2013-04-11 16:32:00,
2013-04-11 12:42:00,43.0,41.0,29.73,ENE,67,1.0,1.0,91,0.00,,,0.00,,2013-04-11 16:42:00,
2013-04-11 12:52:00,43.0,41.0,29.73,ENE,67,1.0,1.0,91,0.00,,,0.00,,2013-04-11 16:52:00,
2013-04-11 13:03:00,42.0,40.0,29.73,SE,135,0.0,1.0,91,0.00,,,0.00,,2013-04-11 17:03:00,
2013-04-11 13:13:00,42.0,40.0,29.73,SE,135,0.0,1.0,91,0.00,,,0.00,,2013-04-11 17:13:00,
2013-04-11 13:23:00,42.0,40.0,29.72,ESE,112,2.0,2.0,91,0.00,,,0.00,,2013-04-11 17:23:00,
2013-04-11 13:33:00,42.0,40.0,29.71,ENE,67,3.0,3.0,91,0.00,,,0.00,,2013-04-11 17:33:00,
2013-04-11 13:43:00,42.0,40.0,29.71,ENE,67,3.0,3.0,91,0.00,,,0.00,,2013-04-11 17:43:00,
2013-04-11 13:53:00,42.0,40.0,29.71,ENE,67,0.0,0.0,91,0.00,,,0.00,,2013-04-11 17:53:00,
2013-04-11 14:03:00,42.0,40.0,29.70,ENE,67,0.0,0.0,91,0.00,,,0.00,,2013-04-11 18:03:00,
2013-04-11 14:13:00,42.0,40.0,29.70,ENE,67,0.0,0.0,91,0.00,,,0.00,,2013-04-11 18:13:00,
2013-04-11 14:23:00,42.0,40.0,29.70,ENE,67,2.0,2.0,91,0.00,,,0.00,,2013-04-11 18:23:00,
2013-04-11 14:33:00,42.0,40.0,29.69,East,90,2.0,2.0,91,0.00,,,0.00,,2013-04-11 18:33:00,
2013-04-11 14:42:00,42.0,40.0,29.69,East,90,2.0,2.0,91,0.00,,,0.00,,2013-04-11 18:42:00,
2013-04-11 14:53:00,42.0,40.0,29.68,ENE,75,2.0,2.0,91,0.00,,,0.00,,2013-04-11 18:53:00,
2013-04-11 15:03:00,43.0,41.0,29.67,East,90,1.0,2.0,91,0.00,,,0.00,,2013-04-11 19:03:00,
2013-04-11 15:14:00,43.0,41.0,29.67,East,90,1.0,2.0,91,0.00,,,0.00,,2013-04-11 19:14:00,
2013-04-11 15:22:00,44.0,42.0,29.67,ESE,112,1.0,3.0,91,0.00,,,0.00,,2013-04-11 19:22:00,
2013-04-11 15:32:00,44.0,42.0,29.67,ESE,112,1.0,1.0,91,0.00,,,0.00,,2013-04-11 19:32:00,
2013-04-11 15:43:00,44.0,42.0,29.67,ESE,112,1.0,1.0,91,0.00,,,0.00,,2013-04-11 19:43:00,
2013-04-11 15:53:00,44.0,42.0,29.67,North,-999,-999.0,-999.0,91,0.00,,,0.00,,2013-04-11 19:53:00,
2013-04-11 16:02:00,47.0,45.0,29.67,ENE,67,0.0,5.0,91,0.00,,,0.00,,2013-04-11 20:02:00,
2013-04-11 16:13:00,48.0,45.0,29.67,ENE,67,0.0,0.0,91,0.00,,,0.00,,2013-04-11 20:13:00,
2013-04-11 16:22:00,48.0,45.0,29.67,ENE,67,0.0,0.0,91,0.00,,,0.00,,2013-04-11 20:22:00,
2013-04-11 16:33:00,48.0,45.0,29.67,ENE,67,0.0,0.0,91,0.00,,,0.00,,2013-04-11 20:33:00,
2013-04-11 16:42:00,48.0,45.0,29.67,ENE,67,0.0,0.0,91,0.00,,,0.00,,2013-04-11 20:42:00,
2013-04-11 16:52:00,50.0,47.0,29.64,ENE,67,1.0,2.0,91,0.00,,,0.00,,2013-04-11 20:52:00,
2013-04-11 17:03:00,51.0,48.0,29.65,ENE,67,1.0,1.0,91,0.00,,,0.00,,2013-04-11 21:03:00,
2013-04-11 17:13:00,51.0,48.0,29.65,ENE,67,1.0,1.0,91,0.00,,,0.00,,2013-04-11 21:13:00,
2013-04-11 17:22:00,52.0,49.0,29.65,North,-999,-999.0,-999.0,91,0.00,,,0.00,,2013-04-11 21:22:00,
2013-04-11 17:33:00,52.0,49.0,29.65,North,-999,-999.0,-999.0,91,0.00,,,0.00,,2013-04-11 21:33:00,
2013-04-11 17:42:00,52.0,49.0,29.65,North,-999,-999.0,-999.0,91,0.00,,,0.00,,2013-04-11 21:42:00,
2013-04-11 17:54:00,51.0,48.0,29.65,East,90,2.0,2.0,91,0.00,,,0.00,,2013-04-11 21:54:00,
2013-04-11 18:03:00,51.0,48.0,29.65,East,90,0.0,2.0,91,0.00,,,0.00,,2013-04-11 22:03:00,
2013-04-11 18:13:00,51.0,48.0,29.65,East,90,0.0,2.0,91,0.00,,,0.00,,2013-04-11 22:13:00,
2013-04-11 18:23:00,51.0,48.0,29.65,ESE,112,0.0,3.0,91,0.00,,,0.00,,2013-04-11 22:23:00,
2013-04-11 18:33:00,51.0,48.0,29.64,East,83,3.0,3.0,91,0.00,,,0.00,,2013-04-11 22:33:00,
2013-04-11 18:44:00,51.0,48.0,29.64,East,83,3.0,3.0,91,0.00,,,0.00,,2013-04-11 22:44:00,
2013-04-11 18:53:00,50.0,47.0,29.61,East,90,1.0,2.0,91,0.00,,,0.00,,2013-04-11 22:53:00,
2013-04-11 19:03:00,50.0,47.0,29.62,ESE,112,0.0,2.0,91,0.00,,,0.00,,2013-04-11 23:03:00,
2013-04-11 19:13:00,50.0,47.0,29.62,ESE,112,0.0,2.0,91,0.00,,,0.00,,2013-04-11 23:13:00,
2013-04-11 19:23:00,49.0,46.0,29.60,East,87,3.0,4.0,91,0.00,,,0.00,,2013-04-11 23:23:00,
2013-04-11 19:32:00,49.0,46.0,29.61,ENE,67,0.0,3.0,91,0.00,,,0.00,,2013-04-11 23:32:00,
2013-04-11 19:42:00,49.0,46.0,29.61,ENE,67,0.0,3.0,91,0.00,,,0.00,,2013-04-11 23:42:00,
2013-04-11 19:53:00,48.0,45.0,29.62,SE,135,2.0,4.0,91,0.00,,,0.00,,2013-04-11 23:53:00,
2013-04-11 20:02:00,48.0,45.0,29.61,ENE,67,2.0,2.0,91,0.00,,,0.00,,2013-04-12 00:02:00,
2013-04-11 20:12:00,48.0,45.0,29.61,ENE,67,2.0,2.0,91,0.00,,,0.00,,2013-04-12 00:12:00,
2013-04-11 20:22:00,47.0,45.0,29.63,NW,315,4.0,4.0,91,0.00,,,0.00,,2013-04-12 00:22:00,
2013-04-11 20:32:00,47.0,45.0,29.64,ENE,67,0.0,4.0,91,0.00,,,0.00,,2013-04-12 00:32:00,
2013-04-11 20:42:00,47.0,45.0,29.64,ENE,67,0.0,4.0,91,0.00,,,0.00,,2013-04-12 00:42:00,
2013-04-11 20:53:00,47.0,45.0,29.62,ENE,67,1.0,1.0,91,0.00,,,0.00,,2013-04-12 00:53:00,
2013-04-11 21:02:00,47.0,45.0,29.60,ENE,67,0.0,0.0,91,0.00,,,0.00,,2013-04-12 01:02:00,
2013-04-11 21:12:00,47.0,45.0,29.60,ENE,67,0.0,0.0,91,0.00,,,0.00,,2013-04-12 01:12:00,
2013-04-11 21:22:00,46.0,43.0,29.62,ENE,67,1.0,1.0,90,0.00,,,0.00,,2013-04-12 01:22:00,
2013-04-11 21:32:00,45.0,42.0,29.61,East,90,1.0,2.0,90,0.00,,,0.00,,2013-04-12 01:32:00,
2013-04-11 21:42:00,45.0,42.0,29.61,East,90,1.0,2.0,90,0.00,,,0.00,,2013-04-12 01:42:00,
2013-04-11 21:52:00,45.0,42.0,29.61,ENE,67,1.0,1.0,90,0.00,,,0.00,,2013-04-12 01:52:00,
2013-04-11 22:03:00,44.0,41.0,29.61,NE,45,0.0,2.0,90,0.00,,,0.00,,2013-04-12 02:03:00,
2013-04-11 22:12:00,44.0,41.0,29.61,NE,45,0.0,2.0,90,0.00,,,0.00,,2013-04-12 02:12:00,
2013-04-11 22:22:00,44.0,42.0,29.61,SE,135,0.0,1.0,91,0.00,,,0.00,,2013-04-12 02:22:00,
2013-04-11 22:32:00,44.0,42.0,29.60,East,90,0.0,0.0,91,0.00,,,0.00,,2013-04-12 02:32:00,
2013-04-11 22:42:00,44.0,42.0,29.60,East,90,0.0,0.0,91,0.00,,,0.00,,2013-04-12 02:42:00,
2013-04-11 22:52:00,44.0,41.0,29.60,East,90,0.0,0.0,90,0.00,,,0.00,,2013-04-12 02:52:00,
2013-04-11 23:02:00,43.0,40.0,29.61,East,90,0.0,0.0,90,0.00,,,0.00,,2013-04-12 03:02:00,
2013-04-11 23:12:00,43.0,40.0,29.61,East,90,0.0,0.0,90,0.00,,,0.00,,2013-04-12 03:12:00,
2013-04-11 23:22:00,43.0,41.0,29.60,East,90,0.0,0.0,91,0.00,,,0.00,,2013-04-12 03:22:00,
2013-04-11 23:33:00,43.0,41.0,29.61,East,90,0.0,0.0,91,0.00,,,0.00,,2013-04-12 03:33:00,
2013-04-11 23:43:00,43.0,41.0,29.61,East,90,0.0,0.0,91,0.00,,,0.00,,2013-04-12 03:43:00,
2013-04-11 23:53:00,43.0,41.0,29.61,East,90,0.0,0.0,91,0.00,,,0.00,,2013-04-12 03:53:00,